PDT,Max TemperatureF,Mean TemperatureF,Min TemperatureF,Max Dew PointF,MeanDew PointF,Min DewpointF,Max Humidity, Mean Humidity, Min Humidity, Max Sea Level PressureIn, Mean Sea Level PressureIn, Min Sea Level PressureIn, Max VisibilityMiles, Mean VisibilityMiles, Min VisibilityMiles, Max Wind SpeedMPH, Mean Wind SpeedMPH, Max Gust SpeedMPH,PrecipitationIn, CloudCover, Events, WindDirDegrees
2013-10-1,66,49,32,36,30,25,87,59,21,30.12,30.10,30.04,10,10,10,17,4,24,0.00,1,,226
2013-10-2,60,42,23,28,23,16,93,61,19,30.12,30.08,30.04,10,10,10,18,3,30,0.00,0,,228
2013-10-3,50,36,21,23,17,7,93,56,17,30.25,30.15,30.08,10,10,7,16,5,21,0.00,1,,58
2013-10-4,57,40,23,18,11,5,69,44,13,30.42,30.33,30.25,10,10,10,17,2,24,0.00,0,,148
2013-10-5,66,40,15,18,13,7,73,45,14,30.49,30.42,30.36,10,10,3,8,2,,0.00,0,,73
2013-10-6,71,47,23,23,16,10,74,46,9,30.41,30.32,30.24,10,10,6,13,1,18,0.00,1,,246
2013-10-7,66,45,24,21,17,10,69,40,11,30.25,30.15,30.07,10,10,10,13,2,21,0.00,1,,232
2013-10-8,60,40,21,45,19,14,74,48,19,30.08,29.97,29.78,10,10,10,13,2,18,0.00,1,,217
2013-10-9,44,37,30,34,26,21,100,65,49,29.97,29.77,29.67,10,10,0,16,3,24,0.00,5,Snow,24
2013-10-10,57,38,19,32,27,19,100,77,31,30.11,29.98,29.87,10,10,8,18,4,24,0.00,1,,217
2013-10-11,60,40,19,32,27,18,100,74,19,30.17,30.12,30.08,10,7,0,14,2,20,0.00,1,Fog,239
2013-10-12,57,39,21,28,25,19,100,72,27,30.12,30.05,29.99,10,8,0,18,2,25,0.00,0,Fog,229
2013-10-13,50,37,24,32,26,23,100,75,40,30.24,30.11,30.00,10,10,10,13,3,17,0.00,4,,93
2013-10-14,57,37,17,30,22,16,100,74,23,30.30,30.25,30.21,10,6,0,9,1,,0.00,1,Fog,34
2013-10-15,55,36,17,23,17,10,100,63,25,30.27,30.25,30.22,10,8,1,13,2,17,0.00,0,,132
2013-10-16,64,40,15,27,18,10,86,57,18,30.29,30.25,30.21,10,8,3,15,2,20,0.00,1,,254
2013-10-17,64,42,21,25,19,12,100,59,15,30.28,30.24,30.18,10,9,5,12,1,,0.00,0,,162
2013-10-18,68,42,15,25,18,10,80,54,15,30.32,30.27,30.21,10,9,3,9,1,,0.00,0,,110
2013-10-19,69,46,23,27,21,10,100,58,11,30.33,30.29,30.22,10,10,3,10,1,,0.00,0,,218
2013-10-20,68,46,23,23,19,12,86,52,12,30.29,30.23,30.15,10,10,10,9,1,,0.00,0,,135
2013-10-21,68,44,19,23,18,14,80,48,15,30.27,30.23,30.16,10,10,8,10,2,,0.00,0,,150
2013-10-22,68,46,23,23,17,12,80,48,12,30.30,30.24,30.17,10,8,1,10,1,,0.00,0,,242
2013-10-23,68,46,23,21,17,14,74,46,13,30.23,30.18,30.11,10,7,1,12,1,,0.00,0,,175
2013-10-24,68,46,23,21,17,14,80,48,13,30.29,30.21,30.15,10,10,10,15,1,21,0.00,0,,190
2013-10-25,66,44,21,19,16,9,80,50,11,30.37,30.33,30.29,10,10,5,8,1,,0.00,0,,197
2013-10-26,66,44,21,19,16,12,80,49,12,30.40,30.32,30.26,10,10,5,12,1,16,0.00,0,,193
2013-10-27,62,40,19,30,20,14,93,56,16,30.26,29.92,29.57,10,9,1,28,5,48,0.01,2,Snow-Thunderstorm,227
2013-10-28,33,30,28,30,29,27,100,92,75,29.81,29.66,29.55,10,5,0,10,3,,0.44,8,Snow,348
2013-10-29,35,32,28,32,30,28,100,90,75,30.08,29.96,29.81,10,8,0,7,3,,0.00,8,Fog-Snow,327
2013-10-30,46,32,19,32,26,18,100,92,53,30.24,30.14,30.07,10,6,0,6,1,,0.00,3,Fog,139
2013-10-31,53,38,23,34,27,23,100,87,44,30.34,30.29,30.24,10,5,0,7,1,,0.00,4,Fog,155